LiveATC.Net - Listen to live air traffic control over the Internet! Contact for advertising information

ICAO: RKSI  IATA: ICN   Airport: Incheon International Airport
City: Seoul
Country: Korea, Republic of   Continent: Asia
RKSI METAR Weather: RKSI 271300Z 01008KT 9999 FEW030 SCT120 M00/M09 Q1028 NOSIG
RKSI Flight Activity (FlightAware)
RKRR Incheon Control
Feed Status: UP   Listeners: 9
Listen right in your browser - requires Flash (in browser, requires Flash)
Click here to listen with your own player (launches your MP3 player)
RKRR Incheon Control Audio Archives
Incheon Control North Sector (Primary)128.700
Incheon Control North Sector (Secondary)132.800
Incheon Control Northwest Sector (Primary)126.175
Incheon Control Northwest Sector (Secondary)123.725


Unauthorized use prohibited. See Terms of Service

Find LiveATC Audio Streams

Airport/ARTCC Code

(e.g., 124.400, 128.75)
Site-wide search

Browse LiveATC Feeds
LiveATC Coverage Map
Top 50 LiveATC Feeds
Bad Weather Areas

Offer a LiveATC Feed
Press Inquiries

LiveATC on iPhone
LiveATC on Android

Windows Phone
Windows 8/10

LiveATC Mobile
(Mobile browser)

ATC Audio Archives
Interesting Recordings

LiveATC Forums

Home Page
Make a Donation
LiveATC Bookstore

Terms of Use
Privacy Policy

ATC/Radar Sites
U.S. ARTCC Freqs
Canadian Air Freqs


FAA Airport Status
Nat'l Airspace Status
Arrival Demand Charts

Server Software By:

Please make a donation to help us keep growing!